createdAt,value
2022-08-30T00:00:51.899Z,5.28
2022-08-30T00:06:15.960Z,5.72
2022-08-30T00:11:37.907Z,5.63
2022-08-30T00:16:59.748Z,6.20
2022-08-30T00:22:22.157Z,6.00
2022-08-30T00:27:44.003Z,6.60
2022-08-30T00:33:08.912Z,5.50
2022-08-30T00:38:30.980Z,5.88
2022-08-30T00:43:52.871Z,6.25
2022-08-30T00:49:20.957Z,6.03
2022-08-30T00:54:45.694Z,6.40
2022-08-30T01:00:08.583Z,6.05
2022-08-30T01:05:31.007Z,5.90
2022-08-30T01:10:54.307Z,6.80
2022-08-30T01:16:16.566Z,6.10
2022-08-30T01:21:47.983Z,5.60
2022-08-30T01:27:09.780Z,6.15
2022-08-30T01:32:31.956Z,6.38
2022-08-30T01:37:54.052Z,5.90
2022-08-30T01:43:17.056Z,6.10
2022-08-30T01:48:40.716Z,6.03
2022-08-30T01:54:03.502Z,5.70
2022-08-30T01:59:25.577Z,5.70
2022-08-30T02:04:47.452Z,6.55
2022-08-30T02:10:10.154Z,6.13
2022-08-30T02:15:33.015Z,6.25
2022-08-30T02:21:03.892Z,6.13
2022-08-30T02:26:26.608Z,6.55
2022-08-30T02:31:48.531Z,6.78
2022-08-30T02:37:10.603Z,6.43
2022-08-30T02:42:32.432Z,6.78
2022-08-30T02:47:54.511Z,5.57
2022-08-30T02:53:16.639Z,5.95
2022-08-30T02:58:38.963Z,6.10
2022-08-30T03:04:00.854Z,6.85
2022-08-30T03:09:22.767Z,7.40
2022-08-30T03:14:44.629Z,6.95
2022-08-30T03:20:07.753Z,7.53
2022-08-30T03:25:29.578Z,6.65
2022-08-30T03:30:51.430Z,6.35
2022-08-30T03:36:13.284Z,6.70
2022-08-30T03:41:35.697Z,6.78
2022-08-30T03:46:57.771Z,7.28
2022-08-30T03:52:19.578Z,6.88
2022-08-30T03:57:43.582Z,6.25
2022-08-30T04:03:05.666Z,6.68
2022-08-30T04:08:27.631Z,6.22
2022-08-30T04:13:49.535Z,6.47
2022-08-30T04:19:12.012Z,5.72
2022-08-30T04:24:33.862Z,4.97
2022-08-30T04:29:56.238Z,5.97
2022-08-30T04:35:18.364Z,5.03
2022-08-30T04:40:44.894Z,6.20
2022-08-30T04:46:08.194Z,6.00
2022-08-30T04:51:30.501Z,8.00
2022-08-30T04:56:52.354Z,7.00
2022-08-30T05:02:14.894Z,9.38
2022-08-30T05:07:37.158Z,8.60
2022-08-30T05:12:58.998Z,8.93
2022-08-30T05:18:20.820Z,7.45
2022-08-30T05:23:43.912Z,5.85
2022-08-30T05:29:05.888Z,6.18
2022-08-30T05:34:30.527Z,6.28
2022-08-30T05:39:52.424Z,7.13
2022-08-30T05:45:15.315Z,6.30
2022-08-30T05:50:39.906Z,6.28
2022-08-30T05:56:03.825Z,5.07
2022-08-30T06:01:31.601Z,4.80
2022-08-30T06:06:53.687Z,3.65
2022-08-30T06:12:15.524Z,3.83
2022-08-30T06:17:37.437Z,5.60
2022-08-30T06:22:59.325Z,5.55
2022-08-30T06:28:21.341Z,5.85
2022-08-30T06:33:43.644Z,10.05
2022-08-30T06:39:06.953Z,3.03
2022-08-30T06:44:28.764Z,4.35
2022-08-30T06:49:52.010Z,10.40
2022-08-30T06:55:15.901Z,3.00
2022-08-30T07:00:37.698Z,2.47
2022-08-30T07:06:00.045Z,2.45
2022-08-30T07:11:34.106Z,2.10
2022-08-30T07:16:55.945Z,1.90
2022-08-30T07:22:17.814Z,1.60
2022-08-30T07:27:39.825Z,1.95
2022-08-30T07:33:01.763Z,1.73
2022-08-30T07:38:23.574Z,1.98
2022-08-30T07:43:45.847Z,1.55
2022-08-30T07:49:08.458Z,1.40
2022-08-30T07:54:33.444Z,1.40
2022-08-30T07:59:55.275Z,1.70
2022-08-30T08:05:19.383Z,1.70
2022-08-30T08:10:43.820Z,1.55
2022-08-30T08:16:06.117Z,1.83
2022-08-30T08:21:28.342Z,1.38
2022-08-30T08:26:50.225Z,1.23
2022-08-30T08:32:12.044Z,1.10
2022-08-30T08:37:33.881Z,1.23
2022-08-30T08:42:55.715Z,1.60
2022-08-30T08:48:58.606Z,1.40
2022-08-30T08:54:36.654Z,1.08
2022-08-30T08:59:58.528Z,1.08
2022-08-30T09:05:23.449Z,0.95
2022-08-30T09:11:02.810Z,1.10
2022-08-30T09:16:46.374Z,1.45
2022-08-30T09:22:35.458Z,0.95
2022-08-30T09:28:12.987Z,0.82
2022-08-30T09:33:35.274Z,0.98
2022-08-30T09:39:06.402Z,1.30
2022-08-30T09:44:28.275Z,0.80
2022-08-30T09:49:50.216Z,0.73
2022-08-30T09:56:04.458Z,1.40
2022-08-30T10:02:06.537Z,1.05
2022-08-30T10:07:38.069Z,0.98
2022-08-30T10:13:24.416Z,0.80
2022-08-30T10:19:00.865Z,0.95
2022-08-30T10:24:33.791Z,0.98
2022-08-30T10:30:11.087Z,0.70
2022-08-30T10:35:53.194Z,0.95
2022-08-30T10:41:42.311Z,0.70
2022-08-30T10:47:26.874Z,0.80
2022-08-30T10:53:07.859Z,3.35
2022-08-30T10:58:31.095Z,9.52
2022-08-30T11:04:00.766Z,1.85
2022-08-30T11:09:46.566Z,3.03
2022-08-30T11:15:21.397Z,2.30
2022-08-30T11:20:50.184Z,3.58
2022-08-30T11:26:20.273Z,2.28
2022-08-30T11:31:43.025Z,1.20
2022-08-30T11:37:09.443Z,0.93
2022-08-30T11:42:38.744Z,0.93
2022-08-30T11:48:27.882Z,1.00
2022-08-30T11:54:03.890Z,0.85
2022-08-30T11:59:31.607Z,0.90
2022-08-30T12:04:53.598Z,0.90
2022-08-30T12:10:35.115Z,1.27
2022-08-30T12:16:03.439Z,1.10
2022-08-30T12:21:43.679Z,0.90
2022-08-30T12:27:32.635Z,0.77
2022-08-30T12:32:55.380Z,0.80
2022-08-30T12:38:27.485Z,1.20
2022-08-30T12:43:51.896Z,0.50
2022-08-30T12:49:16.558Z,0.60
2022-08-30T12:54:40.338Z,1.08
2022-08-30T13:00:09.546Z,1.00
2022-08-30T13:05:44.460Z,0.98
2022-08-30T13:16:42.246Z,1.10
2022-08-30T13:22:25.012Z,0.43
2022-08-30T13:27:48.872Z,1.05
2022-08-30T13:33:10.690Z,0.80
2022-08-30T13:38:32.730Z,0.50
2022-08-30T13:44:11.517Z,0.85
2022-08-30T13:49:43.833Z,2.58
2022-08-30T13:55:06.894Z,1.73
2022-08-30T14:00:32.357Z,0.90
2022-08-30T14:06:15.928Z,0.70
2022-08-30T14:11:38.857Z,0.77
2022-08-30T14:17:00.785Z,0.80
2022-08-30T14:22:22.656Z,0.60
2022-08-30T14:27:44.496Z,0.60
2022-08-30T14:33:06.342Z,0.80
2022-08-30T14:38:28.480Z,1.30
2022-08-30T14:43:51.608Z,1.20
2022-08-30T14:49:14.237Z,0.73
2022-08-30T14:54:36.063Z,1.00
2022-08-30T14:59:57.937Z,1.00
2022-08-30T15:05:20.105Z,1.23
2022-08-30T15:10:42.147Z,0.50
2022-08-30T15:16:17.683Z,0.57
2022-08-30T15:21:43.187Z,0.47
2022-08-30T15:27:06.136Z,0.37
2022-08-30T15:32:28.064Z,0.93
2022-08-30T15:37:53.925Z,0.50
2022-08-30T15:43:17.211Z,0.40
2022-08-30T15:48:45.409Z,1.10
2022-08-30T15:54:08.527Z,0.63
2022-08-30T15:59:31.809Z,0.65
2022-08-30T16:04:54.306Z,0.60
2022-08-30T16:10:16.349Z,0.80
2022-08-30T16:15:39.657Z,1.17
2022-08-30T16:21:06.740Z,0.55
2022-08-30T16:26:30.299Z,0.70
2022-08-30T16:31:52.194Z,0.70
2022-08-30T16:37:14.068Z,1.10
2022-08-30T16:42:37.031Z,1.05
2022-08-30T16:47:59.763Z,0.95
2022-08-30T16:53:21.708Z,1.27
2022-08-30T16:58:44.732Z,1.27
2022-08-30T17:04:07.939Z,2.10
2022-08-30T17:09:29.822Z,0.90
2022-08-30T17:14:52.959Z,1.80
2022-08-30T17:20:15.572Z,0.98
2022-08-30T17:25:38.207Z,1.75
2022-08-30T17:31:02.390Z,0.73
2022-08-30T17:36:24.345Z,0.88
2022-08-30T17:41:50.401Z,1.10
2022-08-30T17:47:12.777Z,1.47
2022-08-30T17:52:35.099Z,0.93
2022-08-30T17:57:56.914Z,1.17
2022-08-30T18:03:22.519Z,0.90
2022-08-30T18:08:45.232Z,0.60
2022-08-30T18:14:10.865Z,0.93
2022-08-30T18:19:33.123Z,0.70
2022-08-30T18:24:59.070Z,0.68
2022-08-30T18:30:23.832Z,0.60
2022-08-30T18:35:48.401Z,0.57
2022-08-30T18:41:13.009Z,0.52
2022-08-30T18:46:34.962Z,0.82
2022-08-30T18:51:57.559Z,0.80
2022-08-30T18:57:19.851Z,0.80
2022-08-30T19:02:43.674Z,0.80
2022-08-30T19:08:07.102Z,0.93
2022-08-30T19:13:28.952Z,2.58
2022-08-30T19:18:50.812Z,1.13
2022-08-30T19:24:12.790Z,2.03
2022-08-30T19:29:40.458Z,1.00
2022-08-30T19:35:02.557Z,0.90
2022-08-30T19:40:25.438Z,1.10
2022-08-30T19:45:53.124Z,0.90
2022-08-30T19:51:15.630Z,0.85
2022-08-30T19:56:37.821Z,0.63
2022-08-30T20:01:59.681Z,1.30
2022-08-30T20:07:25.227Z,1.27
2022-08-30T20:12:50.352Z,1.05
2022-08-30T20:18:14.505Z,1.02
2022-08-30T20:23:36.747Z,1.15
2022-08-30T20:29:00.065Z,1.20
2022-08-30T20:34:21.984Z,1.45
2022-08-30T20:39:43.813Z,1.50
2022-08-30T20:45:06.187Z,1.15
2022-08-30T20:50:27.983Z,1.20
2022-08-30T20:55:49.840Z,1.52
2022-08-30T21:01:12.865Z,1.17
2022-08-30T21:06:34.737Z,1.17
2022-08-30T21:11:56.616Z,1.42
2022-08-30T21:17:19.030Z,1.50
2022-08-30T21:22:40.852Z,1.20
2022-08-30T21:28:02.935Z,1.83
2022-08-30T21:33:24.744Z,1.35
2022-08-30T21:38:46.547Z,1.30
2022-08-30T21:44:12.117Z,1.50
2022-08-30T21:49:34.044Z,0.95
2022-08-30T21:54:55.876Z,1.73
2022-08-30T22:00:18.135Z,1.08
2022-08-30T22:05:40.051Z,1.05
2022-08-30T22:11:09.095Z,1.20
2022-08-30T22:16:31.107Z,1.00
2022-08-30T22:22:00.562Z,1.00
2022-08-30T22:27:23.439Z,1.45
2022-08-30T22:32:45.395Z,1.38
2022-08-30T22:38:07.519Z,1.23
2022-08-30T22:43:29.576Z,1.20
2022-08-30T22:48:52.230Z,1.27
2022-08-30T22:54:14.231Z,1.20
2022-08-30T22:59:36.194Z,1.45
2022-08-30T23:04:58.142Z,1.35
2022-08-30T23:10:20.097Z,1.23
2022-08-30T23:15:42.003Z,1.08
2022-08-30T23:21:10.844Z,1.33
2022-08-30T23:26:33.106Z,1.52
2022-08-30T23:31:54.959Z,1.45
2022-08-30T23:37:17.285Z,1.35
2022-08-30T23:42:39.150Z,1.60
2022-08-30T23:48:00.990Z,1.48
2022-08-30T23:53:22.803Z,1.25
2022-08-30T23:58:44.633Z,1.40
